Escribe parte del nombre o del apellido y encuentra a cualquier jugador de la Historia de la NBA
Home > > D > Dewayne Dedmon
English | Español | Català
< Dewayne Dedmon >

Partidos Dewayne Dedmon Temporada 204-15

Partidos Dewayne Dedmon Temporada 2015/16
Partido Fecha Min TC T3 TL +/- rebO rebD reb asis fp rob per tap tr LF ptos
cha 117 - orl 103 13/04/2016 12:02 2/2 0/0 0/0 -3 0 4 4 0 3 0 2 2 0 8 4
orl 107 - mil 98 11/04/2016 18:50 6/11 0/0 5/6 16 3 5 8 0 4 3 0 3 1 25 17
mia 118 - orl 96 10/04/2016 07:56 2/3 0/0 0/0 -1 0 4 4 0 1 0 0 0 0 7 4
orl 104 - det 108 06/04/2016 04:50 0/0 0/0 0/0 -9 2 0 2 0 0 0 0 1 0 3 0
orl 119 - mem 107 03/04/2016 12:31 4/4 0/0 0/1 5 1 2 3 0 2 0 1 0 0 9 8
mil 113 - orl 110 01/04/2016 10:56 1/1 0/0 2/2 -13 0 4 4 0 1 0 0 0 0 8 4
ind 94 - orl 114 31/03/2016 15:07 3/4 0/0 2/5 -1 3 3 6 1 3 0 1 0 0 10 8
orl 139 - bkn 105 29/03/2016 20:03 6/7 0/0 3/3 9 1 3 4 0 3 0 3 3 1 18 15
orl 111 - chi 89 26/03/2016 22:21 9/14 0/0 0/0 1 4 9 13 2 4 0 2 0 0 26 18
mia 108 - orl 97 25/03/2016 18:01 3/7 0/0 4/5 -3 4 2 6 1 3 1 1 0 0 12 10
det 118 - orl 102 23/03/2016 15:48 0/1 0/0 2/2 -5 2 4 6 0 3 1 1 2 0 9 2
bos 107 - orl 96 21/03/2016 14:53 3/8 0/0 2/2 -7 1 4 5 0 0 1 0 0 2 9 8
tor 105 - orl 100 20/03/2016 16:12 2/4 0/0 0/0 3 2 3 5 1 4 1 0 1 0 10 4
orl 103 - cle 109 18/03/2016 18:28 2/3 0/0 2/2 6 0 6 6 1 2 0 1 1 0 12 6
cha 107 - orl 99 16/03/2016 19:23 0/1 0/0 1/2 -11 1 2 3 0 1 0 0 1 1 3 1
orl 116 - den 110 15/03/2016 20:01 0/2 0/0 0/0 17 0 2 2 0 2 1 1 0 0 0 0
por 121 - orl 84 12/03/2016 15:21 1/2 0/0 0/0 -3 2 6 8 0 1 0 0 1 0 10 2
sac 100 - orl 107 11/03/2016 24:33 4/6 0/0 1/1 6 3 4 7 0 1 0 1 1 1 14 9
lal 107 - orl 98 08/03/2016 19:44 2/2 0/0 1/2 -5 2 8 10 0 3 1 1 1 0 15 5
gsw 119 - orl 113 07/03/2016 08:57 1/2 0/0 0/0 2 0 4 4 0 1 1 0 0 0 6 2
orl 84 - phx 102 04/03/2016 09:34 1/2 0/0 1/2 -15 2 2 4 1 3 1 1 0 0 6 3
orl 102 - chi 89 02/03/2016 02:45 0/0 0/0 0/0 -6 0 1 1 0 0 0 0 1 0 2 0
dal 121 - orl 108 01/03/2016 16:00 5/7 0/0 2/2 8 3 3 6 0 3 0 1 1 0 16 12
nyk 108 - orl 95 26/02/2016 12:59 5/7 0/0 2/2 0 2 1 3 0 1 1 0 0 0 14 12
orl 114 - gsw 130 25/02/2016 03:49 1/2 0/0 0/0 0 0 0 0 0 0 0 0 0 0 1 2
orl 96 - sas 98 10/02/2016 10:36 1/5 0/0 0/0 -3 6 3 9 2 0 0 1 1 1 9 2
atl 110 - orl 117 08/02/2016 06:15 0/0 0/0 2/2 -2 0 1 1 0 2 0 0 0 0 3 2
orl 93 - lac 107 05/02/2016 01:48 0/0 0/0 2/2 0 0 0 0 0 0 0 0 0 0 2 2
sas 107 - orl 92 01/02/2016 02:30 1/2 0/0 0/0 -1 0 0 0 0 1 0 0 0 1 1 2
orl 119 - bos 114 31/01/2016 07:38 1/2 0/0 1/2 -8 0 3 3 1 2 0 1 1 0 5 3
bos 113 - orl 94 29/01/2016 07:03 1/2 0/0 0/0 6 0 2 2 0 0 0 0 0 0 3 2
mem 108 - orl 102 25/01/2016 02:37 0/0 0/0 0/0 -1 0 0 0 0 1 0 0 0 0 0 0
orl 87 - phi 96 20/01/2016 04:42 0/1 0/0 0/0 -3 0 2 2 0 1 0 1 0 1 0 0
atl 98 - orl 81 18/01/2016 10:36 2/2 0/0 0/0 -3 2 5 7 0 1 1 1 0 0 11 4
orl 99 - was 105 09/01/2016 00:37 0/0 0/0 0/0 4 0 0 0 1 0 0 0 0 0 1 0
orl 86 - ind 95 06/01/2016 07:08 0/1 0/0 2/2 -3 1 1 2 0 0 0 0 1 0 4 2
det 115 - orl 89 04/01/2016 09:02 0/0 0/0 0/0 -9 0 1 1 0 1 0 0 3 0 4 0
cle 104 - orl 79 02/01/2016 21:48 4/6 0/0 0/0 6 0 5 5 0 2 0 0 1 0 12 8
was 103 - orl 91 01/01/2016 01:02 1/1 0/0 0/0 0 0 0 0 0 0 0 0 0 0 2 2
orl 100 - bkn 93 30/12/2015 06:18 1/3 0/0 0/0 -9 1 2 3 0 0 0 0 0 1 3 2
orl 104 - nop 89 28/12/2015 02:02 0/0 0/0 0/0 -3 0 0 0 0 1 0 0 0 0 0 0
orl 113 - cha 98 16/12/2015 03:44 0/0 0/0 0/0 -9 0 0 0 0 4 0 1 0 0 -1 0
bkn 82 - orl 105 14/12/2015 04:05 0/1 0/0 0/0 0 0 2 2 0 1 0 0 1 0 2 0
orl 76 - cle 111 11/12/2015 20:05 1/2 0/0 4/6 -13 1 4 5 0 4 0 0 1 0 9 6
orl 114 - mil 90 27/11/2015 03:37 0/0 0/0 0/0 0 0 1 1 0 2 1 1 0 0 1 0
cle 117 - orl 103 23/11/2015 06:49 1/1 0/0 1/4 8 0 0 0 0 0 0 0 0 0 0 3
orl 91 - sac 97 21/11/2015 03:48 0/0 0/0 0/0 2 0 0 0 0 2 0 1 1 0 0 0
orl 104 - min 101 18/11/2015 09:55 2/2 0/0 0/0 -3 0 0 0 0 4 0 1 0 0 3 4
was 108 - orl 99 14/11/2015 12:16 1/1 0/0 2/3 9 0 4 4 0 2 1 0 1 0 9 4
orl 102 - uta 93 13/11/2015 15:38 2/5 0/0 0/0 -2 1 3 4 0 2 0 2 3 0 6 4
orl 101 - lal 99 11/11/2015 12:41 2/6 0/0 0/0 -4 5 3 8 0 2 1 0 0 0 9 4
ind 97 - orl 84 09/11/2015 23:10 2/3 0/0 1/2 5 2 7 9 0 1 2 2 0 0 12 5
phi 97 - orl 105 07/11/2015 29:58 2/6 0/0 8/8 3 3 6 9 0 5 1 0 3 2 21 12
orl 92 - tor 87 06/11/2015 30:10 3/5 0/0 4/6 -6 0 4 4 1 6 0 1 3 1 13 10
hou 119 - orl 114 04/11/2015 26:23 2/5 0/0 0/0 -6 1 6 7 1 6 2 1 2 1 12 4
nop 94 - orl 103 03/11/2015 12:11 3/5 0/0 0/0 10 0 4 4 0 1 0 0 1 0 9 6
orl 136 - okc 139 30/10/2015 12:54 1/2 0/0 0/0 -5 4 2 6 0 2 0 0 2 0 9 2
orl 87 - was 88 28/10/2015 14:44 2/6 0/0 0/0 12 2 4 6 0 4 1 1 2 1 8 4
Volver a Ficha y Estadísticas Completas de Dewayne Dedmon

Colabora

¿Te gustaría colaborar con nosotros?¿Falta algún dato? ¿Algún error en la ficha? Contáctanos!